Flight Track Log - Related Links

Times and Time Zones

All times are in EDT time to prevent confusion due to time zone crossing. See the EJA583 flight status page for this flight to view local times or setup timezone preferences in your user account.

Time Position Orientation Groundspeed Altitude Reporting Facility
EDT Latitude Longitude Course Direction KTS MPH feet Rate Location/Type
Fri 06:02:00 PM 45.3009 -72.5431 209° Southwest  Level Estimated
Fri 06:03:00 PM 45.2466 -72.5837 208° Southwest  Level Estimated
Fri 06:04:00 PM 45.1922 -72.6242 208° Southwest  Level Estimated
Fri 06:05:00 PM 45.1379 -72.6646 208° Southwest  Level Estimated
Fri 06:06:00 PM 45.0836 -72.7050 208° Southwest  Level Estimated
Fri 06:07:00 PM 45.0292 -72.7453 208° Southwest  Level Estimated
Fri 06:08:00 PM 44.9748 -72.7855 208° Southwest  Level Estimated
Fri 06:09:00 PM 44.9204 -72.8256 208° Southwest  Level Estimated
Fri 06:10:00 PM 44.8660 -72.8656 208° Southwest  Level Estimated
Fri 06:11:00 PM 44.8116 -72.9056 208° Southwest  Level Estimated
Fri 06:12:00 PM 44.7572 -72.9455 208° Southwest  Level Estimated
Fri 06:13:00 PM 44.7027 -72.9853 207° Southwest  Level Estimated
Fri 06:14:00 PM 44.6483 -73.0251 207° Southwest  Level Estimated
Fri 06:15:00 PM 44.5938 -73.0648 207° Southwest  Level Estimated
Fri 06:16:00 PM 44.5393 -73.1044 207° Southwest  Level Estimated
Fri 06:17:00 PM 44.4848 -73.1439 207° Southwest  Level Estimated
Fri 06:18:00 PM 44.4719 -73.1533 207° Southwest  Level Estimated
Fri 06:19:00 PM 44.4719 -73.1533 55° Northeast  Level Estimated
Fri 06:20:00 PM 44.4719 -73.1533 55° Northeast  Level Estimated
Fri 06:21:00 PM 44.4719 -73.1533 55° Northeast  Level Estimated
Fri 06:22:00 PM 44.4719 -73.1533 55° Northeast  Level Estimated
Fri 06:23:00 PM 44.4719 -73.1533 55° Northeast  Level Estimated
Fri 06:24:00 PM 44.4719 -73.1533 55° Northeast  Level Estimated
Fri 06:25:00 PM 44.4719 -73.1533 55° Northeast  Level Estimated
Fri 06:26:00 PM 44.4719 -73.1533 55° Northeast  Level Estimated
Fri 06:27:00 PM 44.4719 -73.1533 55° Northeast  Level Estimated
Fri 06:28:00 PM 44.4719 -73.1533 55° Northeast  Level Estimated
Fri 06:29:00 PM 44.4719 -73.1533 55° Northeast  Level Estimated
Fri 06:30:00 PM 44.4719 -73.1533 55° Northeast  Level Estimated
Fri 06:31:00 PM 44.4719 -73.1533 55° Northeast  Level Estimated
Fri 06:32:00 PM 44.4719 -73.1533 55° Northeast  Level Estimated
Fri 06:33:00 PM 44.4719 -73.1533 55° Northeast  Level Estimated
Fri 06:34:00 PM 44.4719 -73.1533 55° Northeast  Level Estimated
Fri 06:35:00 PM 44.4719 -73.1533 55° Northeast  Level Estimated
Fri 06:36:00 PM 44.4719 -73.1533 55° Northeast  Level Estimated
Fri 06:37:00 PM 44.4719 -73.1533 55° Northeast  Level Estimated
Fri 06:38:00 PM 44.4719 -73.1533 55° Northeast  Level Estimated
Fri 06:39:00 PM 44.4719 -73.1533 55° Northeast  Level Estimated
Fri 06:40:00 PM 44.4719 -73.1533 55° Northeast  Level Estimated
Fri 06:41:00 PM 44.4719 -73.1533 55° Northeast  Level Estimated
Fri 06:42:00 PM 44.4719 -73.1533 55° Northeast  Level Estimated
Fri 06:43:00 PM 44.4719 -73.1533 55° Northeast  Level Estimated
Fri 06:44:00 PM 44.4719 -73.1533 55° Northeast  Level Estimated
Fri 06:45:00 PM 44.4719 -73.1533 55° Northeast  Level Estimated
Fri 06:46:00 PM 44.4719 -73.1533 55° Northeast  Level Estimated
Fri 06:47:00 PM 44.4719 -73.1533 55° Northeast  Level Estimated

Login

Don't have an account? Register now (free) for customized features, flight alerts, and more!